KSGF/SGF METAR and TAF weather

Enter ICAO airport designator
Station Type Date Time Source
KSGF METAR 2020/08/14 16:52 UTC NOAA

KSGF 141652Z 15007KT 130V200 10SM SCT033 SCT041 30/22 A2997 RMK AO2 SLP134 T03000222


Station Type Date Time Source
KSGF Decoded METAR 2020/08/14 16:52 UTC NOAA

SPRINGFIELD-BRANSON NATIONAL, MO, United States (KSGF) 37-14N 93-23W 389M
Aug 14, 2020 - 12:52 PM EDT / 2020.08.14 1652 UTC
Wind: from the SSE (150 degrees) at 8 MPH (7 KT) (direction variable):0
Visibility: 10 mile(s):0
Sky conditions: partly cloudy
Temperature: 86.0 F (30.0 C)
Heat index: 92.1 F (33.4 C):1
Dew Point: 72.0 F (22.2 C)
Relative Humidity: 63%
Pressure (altimeter): 29.97 in. Hg (1014 hPa)
ob: KSGF 141652Z 15007KT 130V200 10SM SCT033 SCT041 30/22 A2997 RMK AO2 SLP134 T03000222
cycle: 17

Station Type Date Time Source
KSGF TAF 2020/08/14 18:22 UTC NOAA

TAF KSGF 141720Z 1418/1518 13007KT P6SM SCT030
FM142300 09004KT P6SM FEW250

Example: see airport list